Time;durP1;ratioP1;P1;durP2;ratioP2;P2;SDS_P1;SDS_P2;PMS_P1;PMS_P2;Temp;Humidity;BMP_temperature;BMP_pressure;BME280_temperature;BME280_humidity;BME280_pressure;Samples;Min_cycle;Max_cycle;Signal;HPM_P1;HPM_P2
2023/10/10 00:01:07;;;;;;;25.58;6.45;;;13.50;1.00;;;;;;5041042;28;20211;-87
2023/10/10 00:03:54;;;;;;;23.60;5.47;;;13.50;1.00;;;;;;5065915;28;20048;-87
2023/10/10 00:06:42;;;;;;;17.85;5.45;;;13.40;1.00;;;;;;5067553;28;20425;-88
2023/10/10 00:09:29;;;;;;;19.98;5.55;;;13.40;32.40;;;;;;5047851;28;20045;-88
2023/10/10 00:12:18;;;;;;;20.30;6.15;;;13.40;89.30;;;;;;5047205;28;20056;-88
2023/10/10 00:15:24;;;;;;;28.70;6.38;;;13.30;99.90;;;;;;5043062;28;20223;-88
2023/10/10 00:18:11;;;;;;;27.20;6.38;;;13.30;99.90;;;;;;5069610;28;20049;-87
2023/10/10 00:21:20;;;;;;;22.50;5.85;;;13.40;99.90;;;;;;5077683;28;20056;-88
2023/10/10 00:24:12;;;;;;;26.80;5.32;;;13.60;99.90;;;;;;5057423;28;20563;-88
2023/10/10 00:27:06;;;;;;;19.10;6.13;;;13.70;99.90;;;;;;5060689;28;20053;-88
2023/10/10 00:30:00;;;;;;;25.15;5.28;;;13.70;99.90;;;;;;5054279;28;20056;-87
2023/10/10 00:32:52;;;;;;;17.42;5.18;;;13.70;99.90;;;;;;5055519;28;20048;-89
2023/10/10 00:35:41;;;;;;;19.30;6.32;;;13.60;99.90;;;;;;5055523;28;20380;-88
2023/10/10 00:38:30;;;;;;;20.70;6.53;;;13.60;99.90;;;;;;5065004;28;20044;-87
2023/10/10 00:41:18;;;;;;;20.58;6.45;;;13.50;99.90;;;;;;5065258;28;20159;-88
2023/10/10 00:44:05;;;;;;;17.30;5.20;;;13.40;99.90;;;;;;5062270;28;20314;-88
2023/10/10 00:47:03;;;;;;;22.85;6.60;;;13.40;99.90;;;;;;5075787;28;20040;-87
2023/10/10 00:49:50;;;;;;;20.90;6.13;;;13.40;99.90;;;;;;5070506;28;20056;-88
2023/10/10 00:52:41;;;;;;;23.27;5.95;;;13.50;99.90;;;;;;5050205;28;20076;-88
2023/10/10 00:55:33;;;;;;;26.88;6.97;;;13.50;99.90;;;;;;5063299;28;20048;-88
2023/10/10 00:58:35;;;;;;;20.17;6.53;;;13.40;99.90;;;;;;5050819;28;20056;-88
2023/10/10 01:01:25;;;;;;;20.83;5.88;;;13.40;99.90;;;;;;5071877;28;20756;-90
2023/10/10 01:04:28;;;;;;;29.63;6.35;;;13.20;99.90;;;;;;5069302;28;20060;-88
2023/10/10 01:07:21;;;;;;;20.52;6.03;;;13.00;99.90;;;;;;5073763;28;20036;-88
2023/10/10 01:10:27;;;;;;;20.27;5.95;;;12.90;99.90;;;;;;5070402;28;20040;-88
2023/10/10 01:13:15;;;;;;;22.60;6.65;;;12.80;1.00;;;;;;5066091;28;20055;-87
2023/10/10 01:16:05;;;;;;;25.88;6.32;;;12.70;86.20;;;;;;5059753;28;20044;-88
2023/10/10 01:18:57;;;;;;;30.15;7.30;;;12.60;99.90;;;;;;5058941;28;20097;-87
2023/10/10 01:21:50;;;;;;;26.65;6.72;;;12.60;99.90;;;;;;5059697;28;20059;-88
2023/10/10 01:24:40;;;;;;;21.10;6.72;;;12.50;14.60;;;;;;5055915;28;20054;-89
2023/10/10 01:27:31;;;;;;;21.58;6.82;;;12.50;99.90;;;;;;5074197;28;20460;-88
2023/10/10 01:30:44;;;;;;;28.63;6.07;;;12.50;99.90;;;;;;5066519;28;20555;-87
2023/10/10 01:36:29;;;;;;;27.48;6.53;;;12.50;99.90;;;;;;5072114;28;20056;-87
2023/10/10 01:39:35;;;;;;;20.05;6.50;;;12.50;99.90;;;;;;5065328;28;20047;-88
2023/10/10 01:42:37;;;;;;;17.30;5.88;;;12.50;99.90;;;;;;5049585;28;20054;-86
2023/10/10 01:45:27;;;;;;;23.23;6.68;;;12.60;99.90;;;;;;5066635;28;20051;-87
2023/10/10 01:48:14;;;;;;;17.33;5.93;;;12.70;99.90;;;;;;5063769;28;20056;-87
2023/10/10 01:51:02;;;;;;;20.10;5.78;;;12.80;90.30;;;;;;5065553;28;20040;-88
2023/10/10 01:53:52;;;;;;;19.40;6.57;;;12.90;1.00;;;;;;5057358;28;20049;-87
2023/10/10 01:56:39;;;;;;;23.42;6.10;;;12.80;1.00;;;;;;5063492;28;20056;-89
2023/10/10 01:59:38;;;;;;;22.35;6.88;;;12.80;1.00;;;;;;5058331;28;20057;-89
2023/10/10 02:02:34;;;;;;;31.25;6.70;;;12.70;1.00;;;;;;5061699;28;20048;-88
2023/10/10 02:08:26;;;;;;;23.75;6.57;;;12.90;1.00;;;;;;5071972;28;20745;-88
2023/10/10 02:11:13;;;;;;;22.73;6.13;;;12.90;99.90;;;;;;5055051;28;20036;-87
2023/10/10 02:14:02;;;;;;;21.92;6.10;;;13.00;99.90;;;;;;5065345;28;20055;-88
2023/10/10 02:16:55;;;;;;;19.48;5.97;;;13.10;99.90;;;;;;5055667;28;20372;-87
2023/10/10 02:19:53;;;;;;;26.65;6.30;;;13.10;91.80;;;;;;5058371;28;20468;-87
2023/10/10 02:22:47;;;;;;;23.38;6.18;;;13.20;1.00;;;;;;5053034;28;20048;-87
2023/10/10 02:28:42;;;;;;;27.90;6.25;;;13.20;1.00;;;;;;5074163;28;20040;-89
2023/10/10 02:31:32;;;;;;;17.98;6.07;;;13.10;1.00;;;;;;5065272;28;20093;-89
2023/10/10 02:34:30;;;;;;;24.70;6.00;;;13.20;1.00;;;;;;5064077;28;20403;-88
2023/10/10 02:46:05;;;;;;;21.95;5.78;;;13.40;99.90;;;;;;5075204;28;20260;-89
2023/10/10 02:48:57;;;;;;;21.50;6.10;;;13.30;99.90;;;;;;5061625;28;20043;-88
2023/10/10 02:51:48;;;;;;;26.92;6.72;;;13.30;99.90;;;;;;5055530;28;20052;-89
2023/10/10 02:54:43;;;;;;;19.83;5.28;;;13.20;99.90;;;;;;5056650;28;20068;-89
2023/10/10 02:57:39;;;;;;;18.50;5.95;;;13.10;99.90;;;;;;5068588;28;20067;-87
2023/10/10 03:00:28;;;;;;;22.65;6.32;;;13.20;99.90;;;;;;5047249;28;20438;-86
2023/10/10 03:03:24;;;;;;;15.90;5.60;;;13.20;99.90;;;;;;5071848;28;20040;-88
2023/10/10 03:06:12;;;;;;;19.65;5.53;;;13.10;99.90;;;;;;5075866;28;20055;-87
2023/10/10 03:09:15;;;;;;;22.48;6.10;;;13.00;99.90;;;;;;5042516;28;20041;-87
2023/10/10 03:12:04;;;;;;;16.30;5.78;;;12.90;99.90;;;;;;5051807;28;20061;-89
2023/10/10 03:14:53;;;;;;;28.80;6.72;;;12.90;99.90;;;;;;5060887;28;20049;-87
2023/10/10 03:24:07;;;;;;;17.83;6.20;;;12.80;99.90;;;;;;5070036;28;20049;-86
2023/10/10 03:33:08;;;;;;;18.60;5.90;;;12.90;99.90;;;;;;5055107;28;20057;-87
2023/10/10 05:25:50;;;;;;;29.30;8.15;;;11.00;99.90;;;;;;5080410;28;20063;-88
2023/10/10 05:28:40;;;;;;;22.48;7.32;;;11.00;99.90;;;;;;5073192;28;20486;-87
2023/10/10 05:31:30;;;;;;;19.27;6.70;;;11.10;99.90;;;;;;5079593;28;20198;-87
2023/10/10 05:34:23;;;;;;;24.63;7.38;;;11.10;1.00;;;;;;5057756;28;20063;-88
2023/10/10 05:37:13;;;;;;;;;;;11.20;79.40;;;;;;5060251;28;20048;-86
2023/10/10 05:40:27;;;;;;;19.60;6.90;;;11.10;99.90;;;;;;5066602;28;20046;-87
2023/10/10 05:43:40;;;;;;;26.80;7.55;;;11.10;1.00;;;;;;5063465;28;20044;-87
2023/10/10 05:46:30;;;;;;;25.67;7.05;;;11.10;99.90;;;;;;5067305;28;20041;-86
2023/10/10 05:49:17;;;;;;;26.98;7.03;;;11.10;1.00;;;;;;5059978;28;20048;-88
2023/10/10 05:52:06;;;;;;;19.88;6.22;;;11.20;99.90;;;;;;5065166;28;20040;-85
2023/10/10 05:55:01;;;;;;;26.42;7.45;;;11.30;99.90;;;;;;5055514;28;20052;-86
2023/10/10 05:57:48;;;;;;;23.95;7.22;;;11.40;99.90;;;;;;5052938;28;20041;-86
2023/10/10 06:00:41;;;;;;;28.05;7.47;;;11.60;99.90;;;;;;5076544;28;20055;-87
2023/10/10 06:03:45;;;;;;;21.00;6.57;;;11.60;94.30;;;;;;5061210;28;20389;-84
2023/10/10 06:06:35;;;;;;;25.27;8.25;;;11.80;99.90;;;;;;5054708;28;20101;-85
2023/10/10 06:09:51;;;;;;;30.60;10.15;;;11.90;99.90;;;;;;5044948;28;20071;-86
2023/10/10 06:13:23;;;;;;;19.70;6.20;;;12.10;45.70;;;;;;5049114;28;20037;-87
2023/10/10 06:16:13;;;;;;;30.38;10.50;;;12.30;1.00;;;;;;5060678;28;20557;-86
2023/10/10 06:19:02;;;;;;;19.38;6.40;;;12.30;99.90;;;;;;5054195;28;20099;-86
2023/10/10 06:22:02;;;;;;;18.95;6.28;;;12.40;99.90;;;;;;5070570;28;20059;-86
2023/10/10 06:24:49;;;;;;;21.25;6.28;;;12.50;99.90;;;;;;5053924;28;20125;-86
2023/10/10 06:27:40;;;;;;;25.98;6.45;;;12.60;99.90;;;;;;5056296;28;20203;-86
2023/10/10 06:30:30;;;;;;;19.92;5.32;;;12.90;62.10;;;;;;5061351;28;20070;-85
2023/10/10 06:33:18;;;;;;;29.77;5.63;;;13.30;1.00;;;;;;5068173;28;22043;-85
2023/10/10 06:42:05;;;;;;;25.25;5.82;;;14.40;99.90;;;;;;5071898;28;20045;-87
2023/10/10 06:44:52;;;;;;;20.33;5.43;;;14.60;99.90;;;;;;5058866;28;20048;-85
2023/10/10 06:47:43;;;;;;;22.33;7.65;;;15.10;97.80;;;;;;5070894;28;20036;-89
2023/10/10 06:50:38;;;;;;;28.75;6.72;;;15.30;11.30;;;;;;5055310;28;20052;-87
2023/10/10 06:53:36;;;;;;;23.70;7.10;;;15.50;1.00;;;;;;5051678;28;20063;-86
2023/10/10 06:56:44;;;;;;;25.08;6.45;;;15.60;1.00;;;;;;5058655;28;20060;-86
2023/10/10 06:59:35;;;;;;;18.08;6.15;;;15.80;1.00;;;;;;5046101;28;20067;-86
2023/10/10 07:02:25;;;;;;;17.95;5.97;;;16.00;1.00;;;;;;5055497;28;20048;-86
2023/10/10 07:05:15;;;;;;;23.88;7.65;;;16.30;1.00;;;;;;5068646;28;20345;-84
2023/10/10 07:08:13;;;;;;;31.58;9.02;;;16.40;99.90;;;;;;5058731;28;20053;-86
2023/10/10 07:11:04;;;;;;;22.10;7.95;;;16.50;99.90;;;;;;5059321;28;20051;-85
2023/10/10 07:13:58;;;;;;;26.98;7.40;;;16.70;99.90;;;;;;5052526;28;20044;-86
2023/10/10 07:16:48;;;;;;;26.10;7.20;;;16.90;99.90;;;;;;5051896;28;20037;-86
2023/10/10 07:19:54;;;;;;;18.23;6.10;;;17.10;99.90;;;;;;5067562;28;20041;-85
2023/10/10 07:22:47;;;;;;;24.98;5.97;;;17.20;99.90;;;;;;5053328;28;20059;-85
2023/10/10 07:25:43;;;;;;;23.83;6.40;;;17.30;99.90;;;;;;5055738;28;20701;-84
2023/10/10 07:31:34;;;;;;;20.58;5.97;;;16.90;99.90;;;;;;4950775;29;20051;-86
2023/10/10 07:34:34;;;;;;;17.83;5.07;;;16.80;99.90;;;;;;4948695;28;20128;-87
2023/10/10 07:37:28;;;;;;;19.48;5.10;;;16.70;99.90;;;;;;4958916;28;20047;-86
2023/10/10 07:40:28;;;;;;;22.13;5.32;;;16.70;99.90;;;;;;4950868;28;20118;-86
2023/10/10 07:43:16;;;;;;;18.65;5.80;;;16.90;99.90;;;;;;4950683;28;20044;-86
2023/10/10 07:46:17;;;;;;;17.63;5.18;;;17.00;99.90;;;;;;4942776;29;20143;-85
2023/10/10 07:49:08;;;;;;;21.95;5.75;;;17.00;99.90;;;;;;4961612;28;20380;-86
2023/10/10 07:52:04;;;;;;;22.17;5.00;;;17.20;99.90;;;;;;4945612;28;20129;-86
2023/10/10 07:55:02;;;;;;;25.15;6.00;;;17.40;99.90;;;;;;4947045;28;20047;-85
2023/10/10 07:58:06;;;;;;;17.55;5.82;;;17.80;99.90;;;;;;4952458;29;20047;-86
2023/10/10 08:01:09;;;;;;;24.15;6.00;;;18.30;99.90;;;;;;4952118;28;20043;-85
2023/10/10 08:04:04;;;;;;;21.02;5.63;;;18.50;99.90;;;;;;4953013;28;20039;-85
2023/10/10 08:06:52;;;;;;;25.92;6.75;;;18.50;99.90;;;;;;4953024;29;20400;-85
2023/10/10 08:09:42;;;;;;;19.98;6.00;;;18.60;99.90;;;;;;4949820;28;20047;-87
2023/10/10 08:12:33;;;;;;;20.45;6.75;;;18.50;99.90;;;;;;4954612;28;20044;-86
2023/10/10 08:15:25;;;;;;;22.35;6.35;;;18.40;99.90;;;;;;4954861;28;20062;-87
2023/10/10 08:18:39;;;;;;;28.85;6.53;;;18.40;99.90;;;;;;4957424;28;20360;-87
2023/10/10 08:21:25;;;;;;;21.30;6.10;;;18.40;99.90;;;;;;4948032;28;20101;-86
2023/10/10 08:24:12;;;;;;;22.05;5.55;;;18.30;99.90;;;;;;4948593;29;20094;-87
2023/10/10 08:27:09;;;;;;;18.77;5.60;;;18.10;99.90;;;;;;4963484;28;20039;-86
2023/10/10 08:29:57;;;;;;;25.15;6.00;;;18.00;99.90;;;;;;4949188;28;20078;-86
2023/10/10 08:32:48;;;;;;;23.70;7.07;;;18.20;99.90;;;;;;4953538;28;20548;-84
2023/10/10 08:35:38;;;;;;;19.55;6.07;;;18.20;99.90;;;;;;4950009;28;20059;-85
2023/10/10 08:38:26;;;;;;;21.75;5.95;;;18.20;99.90;;;;;;4946191;29;20130;-83
2023/10/10 08:41:19;;;;;;;23.50;5.68;;;18.60;99.90;;;;;;4963915;28;20461;-83
2023/10/10 08:44:10;;;;;;;18.00;5.65;;;18.90;99.90;;;;;;4955736;29;20043;-84
2023/10/10 08:47:03;;;;;;;20.70;5.38;;;19.10;99.90;;;;;;4958178;29;20075;-85
2023/10/10 08:49:53;;;;;;;21.05;5.40;;;19.20;99.90;;;;;;4956647;28;20059;-83
2023/10/10 08:52:41;;;;;;;26.80;6.20;;;19.50;99.90;;;;;;4956205;28;20381;-84
2023/10/10 08:55:34;;;;;;;23.17;5.55;;;19.60;99.90;;;;;;4945895;28;20063;-85
2023/10/10 08:58:26;;;;;;;21.75;5.53;;;19.90;99.90;;;;;;4957149;28;20051;-84
2023/10/10 09:01:16;;;;;;;19.90;5.88;;;20.10;99.90;;;;;;4950345;29;20047;-86
2023/10/10 09:04:05;;;;;;;23.27;5.30;;;20.50;99.90;;;;;;4959276;28;20113;-83
2023/10/10 09:09:54;;;;;;;22.85;5.80;;;20.70;99.90;;;;;;4956460;28;20043;-86
2023/10/10 09:13:19;;;;;;;19.85;5.28;;;21.10;95.00;;;;;;4946804;28;20099;-85
2023/10/10 09:16:07;;;;;;;15.30;4.90;;;21.70;82.80;;;;;;4944071;29;20062;-86
2023/10/10 09:19:10;;;;;;;18.85;4.55;;;22.30;55.50;;;;;;4964170;28;20538;-85
2023/10/10 09:22:02;;;;;;;26.75;5.90;;;22.60;45.70;;;;;;4944752;28;20058;-85
2023/10/10 09:24:49;;;;;;;20.85;5.68;;;22.90;43.40;;;;;;4957633;28;20175;-84
2023/10/10 09:27:43;;;;;;;18.27;5.68;;;23.10;35.60;;;;;;4945852;29;20384;-86
2023/10/10 09:30:37;;;;;;;15.88;4.80;;;23.20;24.90;;;;;;4956301;28;20131;-86
2023/10/10 09:33:28;;;;;;;23.50;5.15;;;23.30;22.90;;;;;;4948945;28;20127;-86
2023/10/10 09:36:26;;;;;;;15.15;5.05;;;23.40;23.30;;;;;;4953539;28;20047;-85
2023/10/10 09:39:36;;;;;;;22.08;6.13;;;23.70;25.90;;;;;;4955901;28;20067;-86
2023/10/10 09:42:42;;;;;;;18.90;5.35;;;24.30;12.30;;;;;;4956256;28;20043;-84
2023/10/10 09:45:55;;;;;;;16.27;5.22;;;25.10;1.00;;;;;;4944676;29;20221;-85
2023/10/10 09:49:17;;;;;;;15.48;5.00;;;25.20;1.00;;;;;;4951941;29;20481;-84
2023/10/10 10:00:52;;;;;;;17.10;4.55;;;24.60;1.00;;;;;;4945984;28;20051;-84
2023/10/10 10:03:55;;;;;;;23.17;5.07;;;24.40;1.00;;;;;;4946395;29;20095;-83
2023/10/10 10:07:23;;;;;;;22.65;5.35;;;24.70;1.00;;;;;;4995595;23;20053;-83
2023/10/10 10:10:33;;;;;;;19.75;4.25;;;25.00;1.00;;;;;;4967342;28;20053;-84
2023/10/10 10:13:41;;;;;;;23.33;4.93;;;25.10;1.00;;;;;;5019787;28;20055;-85
2023/10/10 10:16:54;;;;;;;23.63;5.13;;;24.80;1.00;;;;;;5015160;28;20054;-84
2023/10/10 10:19:47;;;;;;;17.30;5.18;;;25.00;1.00;;;;;;5016090;28;20052;-84
2023/10/10 10:22:42;;;;;;;15.90;4.60;;;25.10;1.00;;;;;;5019427;28;20053;-86
2023/10/10 10:25:31;;;;;;;15.68;4.90;;;25.20;1.00;;;;;;5030713;28;20142;-85
2023/10/10 10:28:28;;;;;;;22.75;5.03;;;25.70;1.00;;;;;;5014796;28;21008;-86
2023/10/10 10:31:30;;;;;;;20.60;5.47;;;26.80;1.00;;;;;;5018271;28;20041;-86
2023/10/10 10:34:45;;;;;;;17.67;4.78;;;26.90;1.00;;;;;;5008618;28;20041;-84
2023/10/10 10:37:32;;;;;;;21.92;5.15;;;26.30;1.00;;;;;;5026894;28;20050;-85
2023/10/10 10:43:34;;;;;;;14.48;4.80;;;26.00;1.00;;;;;;5030199;28;20045;-87
2023/10/10 10:46:47;;;;;;;22.30;5.38;;;26.10;1.00;;;;;;5018307;28;20068;-85
2023/10/10 10:49:38;;;;;;;18.70;4.97;;;26.40;1.00;;;;;;5024490;28;20049;-85
2023/10/10 10:52:55;;;;;;;17.17;5.47;;;26.60;1.00;;;;;;5033827;28;20041;-85
2023/10/10 10:55:59;;;;;;;27.05;6.15;;;26.30;1.00;;;;;;5031822;28;20560;-85
2023/10/10 11:01:51;;;;;;;19.10;4.35;;;25.70;1.00;;;;;;5035728;28;20046;-86
2023/10/10 11:07:41;;;;;;;17.23;5.45;;;26.30;1.00;;;;;;5027774;28;20179;-85
2023/10/10 11:10:36;;;;;;;17.83;4.93;;;26.70;1.00;;;;;;5010969;28;20052;-86
2023/10/10 11:13:28;;;;;;;16.23;4.75;;;27.20;1.00;;;;;;5037303;28;20056;-86
2023/10/10 11:16:23;;;;;;;16.00;4.97;;;28.10;1.00;;;;;;5022297;28;20042;-83
2023/10/10 11:22:15;;;;;;;15.45;5.28;;;28.60;1.00;;;;;;5023176;28;20338;-84
2023/10/10 11:25:04;;;;;;;16.23;5.25;;;28.60;1.00;;;;;;5022133;28;20053;-85
2023/10/10 11:27:54;;;;;;;18.05;5.63;;;28.30;1.00;;;;;;5015186;28;20057;-85
2023/10/10 11:30:45;;;;;;;20.02;4.95;;;28.70;1.00;;;;;;5028685;28;20037;-85
2023/10/10 11:37:33;;;;;;;16.90;5.03;;;29.00;1.00;;;;;;5004839;28;20125;-82
2023/10/10 11:43:22;;;;;;;16.92;5.60;;;28.60;1.00;;;;;;5032284;28;20041;-86
2023/10/10 11:46:12;;;;;;;26.17;6.28;;;28.50;1.00;;;;;;5021427;28;20112;-85
2023/10/10 11:49:02;;;;;;;16.30;5.38;;;28.00;1.00;;;;;;5023341;28;20049;-84
2023/10/10 11:51:53;;;;;;;15.57;5.80;;;27.50;1.00;;;;;;5008331;28;20257;-86
2023/10/10 11:54:44;;;;;;;22.08;6.07;;;27.10;1.00;;;;;;5032510;28;20129;-85
2023/10/10 11:57:33;;;;;;;21.65;6.00;;;27.20;1.00;;;;;;5029308;28;20141;-85
2023/10/10 12:00:38;;;;;;;26.90;5.80;;;28.00;1.00;;;;;;5032039;28;20046;-86
2023/10/10 12:06:30;;;;;;;22.15;4.95;;;28.50;1.00;;;;;;5022182;28;20046;-84
2023/10/10 12:09:19;;;;;;;15.50;4.47;;;28.90;1.00;;;;;;5028239;28;20045;-85
2023/10/10 12:12:15;;;;;;;14.80;5.57;;;29.30;1.00;;;;;;5027610;28;20073;-85
2023/10/10 12:15:14;;;;;;;24.83;5.35;;;28.60;1.00;;;;;;5031056;28;20493;-83
2023/10/10 12:18:03;;;;;;;17.25;4.53;;;28.60;1.00;;;;;;5017531;28;20133;-84
2023/10/10 12:20:55;;;;;;;16.90;5.60;;;29.00;1.00;;;;;;5021115;28;20042;-85
2023/10/10 12:23:52;;;;;;;17.67;5.20;;;29.30;1.00;;;;;;5010700;28;20068;-86
2023/10/10 12:26:53;;;;;;;21.70;4.90;;;29.30;1.00;;;;;;5026087;28;20045;-86
2023/10/10 12:29:47;;;;;;;13.88;5.35;;;29.50;1.00;;;;;;5022706;28;20065;-83
2023/10/10 12:32:35;;;;;;;18.05;5.72;;;28.70;1.00;;;;;;5013551;28;20053;-83
2023/10/10 12:35:30;;;;;;;15.45;5.05;;;28.50;1.00;;;;;;5013831;28;20405;-84
2023/10/10 12:38:21;;;;;;;15.70;5.43;;;28.70;1.00;;;;;;5006129;28;20100;-84
2023/10/10 12:41:12;;;;;;;14.55;4.47;;;28.10;1.00;;;;;;5017258;28;20068;-83
2023/10/10 12:44:06;;;;;;;19.55;4.95;;;28.40;1.00;;;;;;5018663;28;20128;-84
2023/10/10 12:46:54;;;;;;;19.63;4.93;;;28.10;1.00;;;;;;5012615;28;20038;-85
2023/10/10 12:49:45;;;;;;;17.65;4.82;;;28.10;1.00;;;;;;5021843;28;20041;-88
2023/10/10 12:52:43;;;;;;;14.35;4.63;;;28.90;1.00;;;;;;5017694;28;20104;-86
2023/10/10 12:55:48;;;;;;;16.92;4.70;;;28.70;1.00;;;;;;5014112;28;20056;-89
2023/10/10 12:58:40;;;;;;;14.85;4.57;;;29.20;1.00;;;;;;5025412;28;20045;-89
2023/10/10 13:01:32;;;;;;;21.83;5.57;;;28.90;1.00;;;;;;5021864;28;20049;-89
2023/10/10 13:04:28;;;;;;;;;;;29.00;1.00;;;;;;5015575;28;20126;-88
2023/10/10 13:07:16;;;;;;;15.60;4.97;;;29.00;1.00;;;;;;5022893;28;19926;-86
2023/10/10 13:10:10;;;;;;;16.60;5.25;;;29.40;1.00;;;;;;5009147;28;20084;-87
2023/10/10 13:12:57;;;;;;;25.08;5.43;;;28.60;1.00;;;;;;5022983;28;20676;-88
2023/10/10 13:15:49;;;;;;;15.52;5.28;;;27.20;1.00;;;;;;5030334;28;20469;-88
2023/10/10 13:18:39;;;;;;;12.35;4.93;;;26.40;1.00;;;;;;5029580;28;20037;-86
2023/10/10 13:21:29;;;;;;;16.80;5.30;;;26.50;1.00;;;;;;5025025;28;20429;-88
2023/10/10 13:24:18;;;;;;;24.40;6.05;;;26.70;1.00;;;;;;5020793;28;20176;-87
2023/10/10 13:27:09;;;;;;;19.55;5.60;;;26.70;1.00;;;;;;5023761;28;20046;-89
2023/10/10 13:29:57;;;;;;;19.48;5.60;;;26.70;1.00;;;;;;5021218;28;20054;-88
2023/10/10 13:32:45;;;;;;;15.55;5.43;;;26.50;1.00;;;;;;5023524;28;20060;-89
2023/10/10 13:35:37;;;;;;;13.68;5.22;;;26.40;1.00;;;;;;5031381;28;20084;-87
2023/10/10 13:38:25;;;;;;;14.55;5.45;;;26.70;1.00;;;;;;5009420;28;20117;-87
2023/10/10 13:41:16;;;;;;;13.50;5.13;;;26.70;1.00;;;;;;5026388;28;20080;-88
2023/10/10 13:44:04;;;;;;;13.98;5.28;;;26.70;1.00;;;;;;5028015;28;20355;-89
2023/10/10 13:46:52;;;;;;;18.80;5.45;;;26.60;1.00;;;;;;5014914;28;20125;-88
2023/10/10 13:49:45;;;;;;;21.05;5.55;;;25.90;1.00;;;;;;5022694;28;20056;-89
2023/10/10 13:52:38;;;;;;;12.52;4.78;;;25.20;1.00;;;;;;5027040;28;20053;-89
2023/10/10 13:55:29;;;;;;;16.80;5.63;;;25.10;1.00;;;;;;5018484;28;20046;-89
2023/10/10 13:58:18;;;;;;;18.95;5.47;;;25.00;1.00;;;;;;5025746;28;20042;-86
2023/10/10 14:04:13;;;;;;;16.10;5.35;;;24.80;1.00;;;;;;5024206;28;20064;-90
2023/10/10 14:07:05;;;;;;;14.13;4.90;;;24.80;1.00;;;;;;5026695;28;20045;-86
2023/10/10 14:09:53;;;;;;;15.13;4.87;;;25.00;1.00;;;;;;5011990;28;20073;-88
2023/10/10 14:12:50;;;;;;;16.08;4.63;;;25.00;1.00;;;;;;5026495;28;20288;-89
2023/10/10 14:16:05;;;;;;;17.02;4.75;;;25.00;1.00;;;;;;5026508;28;20153;-89
2023/10/10 14:18:54;;;;;;;18.70;5.97;;;25.00;1.00;;;;;;5024534;28;20121;-90
2023/10/10 14:21:41;;;;;;;19.90;5.65;;;25.10;1.00;;;;;;5020182;28;20046;-87
2023/10/10 14:24:31;;;;;;;16.73;4.97;;;25.50;1.00;;;;;;5027670;28;20049;-90
2023/10/10 14:27:20;;;;;;;18.05;5.03;;;25.70;1.00;;;;;;5014246;28;20054;-88
2023/10/10 14:30:23;;;;;;;18.10;5.20;;;26.10;1.00;;;;;;5030832;28;20054;-88
2023/10/10 14:33:13;;;;;;;14.98;5.38;;;26.60;1.00;;;;;;5025455;28;20053;-88
2023/10/10 14:36:01;;;;;;;22.40;6.03;;;27.20;1.00;;;;;;5030591;28;20103;-89
2023/10/10 14:38:52;;;;;;;14.10;5.10;;;27.80;1.00;;;;;;5029214;28;20489;-90
2023/10/10 14:41:41;;;;;;;18.05;5.43;;;28.40;1.00;;;;;;5018941;28;20468;-89
2023/10/10 14:44:32;;;;;;;19.83;5.03;;;28.80;1.00;;;;;;5034521;28;20129;-90
2023/10/10 14:47:23;;;;;;;16.80;4.80;;;28.50;1.00;;;;;;5035664;28;20508;-88
2023/10/10 14:50:12;;;;;;;15.53;4.70;;;28.40;1.00;;;;;;5036954;28;20092;-87
2023/10/10 14:53:08;;;;;;;13.40;4.90;;;28.10;1.00;;;;;;5020412;28;20604;-88
2023/10/10 14:55:56;;;;;;;19.70;4.55;;;27.70;1.00;;;;;;5023023;28;20052;-81
2023/10/10 14:58:48;;;;;;;13.52;5.30;;;27.50;1.00;;;;;;5028733;28;20061;-88
2023/10/10 15:01:39;;;;;;;18.40;5.50;;;27.50;1.00;;;;;;5020619;28;20038;-89
2023/10/10 15:04:30;;;;;;;20.27;5.55;;;27.40;1.00;;;;;;5015483;28;20068;-88
2023/10/10 15:07:18;;;;;;;12.73;5.40;;;27.40;1.00;;;;;;5033715;28;20084;-90
2023/10/10 15:10:14;;;;;;;16.42;5.05;;;27.50;1.00;;;;;;5031595;28;20381;-88
2023/10/10 15:13:05;;;;;;;19.25;5.70;;;28.00;1.00;;;;;;5027370;28;20450;-90
2023/10/10 15:15:55;;;;;;;18.45;5.95;;;27.80;1.00;;;;;;5023516;28;20457;-91
2023/10/10 15:18:53;;;;;;;14.98;5.32;;;27.70;1.00;;;;;;5020205;28;20046;-85
2023/10/10 15:21:41;;;;;;;15.32;5.53;;;27.30;1.00;;;;;;5028154;28;20076;-89
2023/10/10 15:24:30;;;;;;;15.77;5.25;;;26.70;1.00;;;;;;5031312;28;20061;-88
2023/10/10 15:27:30;;;;;;;19.10;6.18;;;26.60;1.00;;;;;;5009088;28;20046;-90
2023/10/10 15:30:29;;;;;;;16.67;5.15;;;26.20;1.00;;;;;;5010240;28;20113;-90
2023/10/10 15:33:22;;;;;;;15.13;5.78;;;25.40;1.00;;;;;;5025802;28;20053;-90
2023/10/10 15:36:53;;;;;;;16.33;5.68;;;24.90;1.00;;;;;;5023419;28;20060;-91
2023/10/10 15:40:01;;;;;;;15.38;5.15;;;25.00;1.00;;;;;;4963891;28;20054;-90
2023/10/10 15:42:52;;;;;;;15.68;5.57;;;25.40;1.00;;;;;;4945520;28;20065;-88
2023/10/10 15:45:56;;;;;;;16.77;5.15;;;25.40;1.00;;;;;;5009291;28;20370;-89
2023/10/10 15:49:26;;;;;;;18.20;4.90;;;25.50;1.00;;;;;;5038237;28;20052;-89
2023/10/10 15:52:33;;;;;;;17.67;5.22;;;25.40;1.00;;;;;;5032449;28;20143;-87
2023/10/10 15:55:38;;;;;;;;;;;;;;;;;;;;;
2023/10/10 15:58:49;;;;;;;20.70;4.93;;;25.30;1.00;;;;;;5025534;28;20042;-89
2023/10/10 16:01:37;;;;;;;20.05;6.78;;;24.80;1.00;;;;;;5022707;28;20503;-88
2023/10/10 16:04:27;;;;;;;16.63;5.45;;;24.00;1.00;;;;;;5025880;28;20053;-90
2023/10/10 16:07:17;;;;;;;24.00;6.03;;;23.40;1.00;;;;;;5027558;28;20046;-89
2023/10/10 16:10:07;;;;;;;18.63;5.60;;;22.60;1.00;;;;;;5019888;28;20393;-87
2023/10/10 16:12:57;;;;;;;17.88;5.78;;;22.10;1.00;;;;;;5029310;28;20067;-87
2023/10/10 16:15:45;;;;;;;20.30;6.28;;;21.50;1.00;;;;;;5034906;28;20422;-87
2023/10/10 16:18:37;;;;;;;24.10;6.43;;;21.00;1.00;;;;;;5038354;28;20488;-86
2023/10/10 16:21:25;;;;;;;21.25;7.15;;;20.70;1.00;;;;;;5044719;28;20461;-88
2023/10/10 16:24:15;;;;;;;20.88;6.22;;;20.40;1.00;;;;;;5022400;28;20092;-87
2023/10/10 16:27:04;;;;;;;19.92;6.10;;;20.10;1.00;;;;;;5030746;28;20397;-86
2023/10/10 16:29:55;;;;;;;22.02;7.25;;;19.90;1.00;;;;;;5046184;28;20044;-87
2023/10/10 16:32:49;;;;;;;17.35;6.35;;;19.70;1.00;;;;;;5035899;28;20053;-86
2023/10/10 16:35:46;;;;;;;21.40;7.22;;;19.50;1.00;;;;;;5035078;28;20041;-86
2023/10/10 16:38:37;;;;;;;21.17;6.40;;;19.20;1.00;;;;;;5031237;28;20049;-87
2023/10/10 16:41:24;;;;;;;15.90;6.50;;;18.90;1.00;;;;;;5012862;28;20127;-88
2023/10/10 16:44:14;;;;;;;18.67;7.07;;;18.60;1.00;;;;;;5024798;28;20065;-89
2023/10/10 16:47:02;;;;;;;24.48;7.00;;;18.40;1.00;;;;;;5036708;28;20149;-87
2023/10/10 16:49:49;;;;;;;34.85;8.18;;;18.20;1.00;;;;;;5035878;28;20041;-88
2023/10/10 16:52:40;;;;;;;22.45;7.40;;;18.00;1.00;;;;;;5032045;28;20055;-88
2023/10/10 16:55:31;;;;;;;40.72;8.48;;;17.80;1.00;;;;;;5024180;28;20533;-86
2023/10/10 16:58:19;;;;;;;38.53;8.60;;;17.60;1.00;;;;;;5006457;28;20458;-88
2023/10/10 17:01:16;;;;;;;35.90;8.60;;;17.40;1.00;;;;;;5010977;28;20041;-91
2023/10/10 17:04:04;;;;;;;34.88;8.82;;;17.30;19.60;;;;;;5029203;28;20461;-86
2023/10/10 17:06:52;;;;;;;41.05;9.02;;;17.10;26.40;;;;;;5025169;28;20362;-85
2023/10/10 17:09:42;;;;;;;29.27;7.50;;;17.00;38.90;;;;;;5022277;28;20470;-87
2023/10/10 17:12:29;;;;;;;27.67;8.27;;;16.80;73.40;;;;;;5023080;28;20045;-85
2023/10/10 17:15:20;;;;;;;28.38;8.50;;;16.70;69.70;;;;;;5033714;28;20546;-85
2023/10/10 17:18:10;;;;;;;31.77;9.23;;;16.50;92.00;;;;;;5035766;28;20466;-85
2023/10/10 17:21:00;;;;;;;24.45;9.07;;;16.40;99.90;;;;;;5019650;28;20037;-84
2023/10/10 17:23:50;;;;;;;25.80;8.55;;;16.20;99.90;;;;;;5023664;28;20049;-84
2023/10/10 17:26:43;;;;;;;29.13;9.65;;;16.20;99.90;;;;;;5027844;28;20052;-87
2023/10/10 17:29:31;;;;;;;27.40;9.77;;;16.10;99.90;;;;;;5030389;28;20045;-87
2023/10/10 17:32:18;;;;;;;21.95;9.65;;;16.00;99.90;;;;;;5029455;28;20458;-86
2023/10/10 17:35:07;;;;;;;24.45;8.40;;;15.80;99.90;;;;;;5020575;28;20056;-87
2023/10/10 17:37:57;;;;;;;31.08;10.15;;;15.70;99.90;;;;;;5016680;28;20061;-86
2023/10/10 17:40:45;;;;;;;27.83;10.25;;;15.60;99.90;;;;;;5023651;28;20438;-88
2023/10/10 17:43:32;;;;;;;22.83;10.43;;;15.50;99.90;;;;;;5034869;28;20080;-88
2023/10/10 17:46:21;;;;;;;32.53;10.77;;;15.50;99.90;;;;;;5010433;28;20081;-87
2023/10/10 17:49:11;;;;;;;25.70;9.90;;;15.60;99.90;;;;;;5034300;28;20041;-88
2023/10/10 17:52:00;;;;;;;25.77;10.13;;;15.60;99.90;;;;;;5030436;28;20050;-84
2023/10/10 17:54:48;;;;;;;31.52;10.02;;;15.60;99.90;;;;;;5035603;28;20064;-86
2023/10/10 17:57:36;;;;;;;25.30;8.20;;;15.80;99.90;;;;;;5004410;28;20050;-85
2023/10/10 18:00:24;;;;;;;22.80;8.07;;;15.90;99.90;;;;;;5018950;28;20045;-85
2023/10/10 18:03:14;;;;;;;27.52;8.45;;;15.90;99.90;;;;;;5022795;28;20385;-87
2023/10/10 18:06:04;;;;;;;23.60;8.32;;;16.00;99.90;;;;;;5031772;28;20089;-85